Time;durP1;ratioP1;P1;durP2;ratioP2;P2;SDS_P1;SDS_P2;PMS_P1;PMS_P2;Temp;Humidity;BMP_temperature;BMP_pressure;BME280_temperature;BME280_humidity;BME280_pressure;Samples;Min_cycle;Max_cycle;Signal;HPM_P1;HPM_P2
2021/04/13 00:01:20;;;;;;;56.90;31.15;;;;;;;7.67;77.77;99740.39;1808123;78;21192;-65
2021/04/13 00:04:14;;;;;;;55.33;30.48;;;;;;;7.65;77.95;99739.31;1725267;83;21586;-64
2021/04/13 00:09:29;;;;;;;56.33;31.48;;;;;;;7.67;78.12;99736.29;1890137;76;23273;-63
2021/04/13 00:12:08;;;;;;;47.95;28.50;;;;;;;7.62;78.18;99745.36;1855724;77;20912;-63
2021/04/13 00:14:40;;;;;;;48.95;30.17;;;;;;;7.62;78.26;99743.44;1861161;77;21494;-64
2021/04/13 00:17:11;;;;;;;56.18;30.72;;;;;;;7.61;78.39;99738.27;1851091;76;21038;-64
2021/04/13 00:19:59;;;;;;;;;;;;;;;7.60;78.44;99738.83;1780902;78;21003;-64
2021/04/13 00:22:27;;;;;;;55.73;29.92;;;;;;;7.59;78.44;99739.92;1840303;77;20145;-64
2021/04/13 00:24:55;;;;;;;54.15;27.95;;;;;;;7.59;78.45;99740.48;1861013;77;20927;-64
2021/04/13 00:27:23;;;;;;;61.65;31.45;;;;;;;7.57;78.46;99738.03;1828039;77;22587;-64
2021/04/13 00:30:13;;;;;;;53.52;29.18;;;;;;;7.58;78.50;99738.85;1860905;77;20931;-64
2021/04/13 00:32:48;;;;;;;59.73;31.42;;;;;;;7.58;78.50;99741.59;1861118;77;20964;-64
2021/04/13 00:35:28;;;;;;;56.92;31.50;;;;;;;7.59;78.51;99741.84;1861080;77;21470;-63
2021/04/13 00:37:46;;;;;;;57.10;30.88;;;;;;;7.60;78.55;99743.47;1858975;77;20931;-64
2021/04/13 00:40:29;;;;;;;62.20;32.10;;;;;;;7.59;78.57;99744.02;1860901;77;22361;-63
2021/04/13 00:43:01;;;;;;;57.15;31.20;;;;;;;7.59;78.68;99752.77;1860947;77;20896;-63
2021/04/13 00:45:33;;;;;;;55.00;29.92;;;;;;;7.58;78.94;99752.52;1861121;77;20995;-63
2021/04/13 00:48:00;;;;;;;54.83;30.32;;;;;;;7.58;79.04;99756.61;1860923;77;20943;-64
2021/04/13 00:50:37;;;;;;;52.20;29.40;;;;;;;7.57;79.15;99754.98;1828606;77;21577;-64
2021/04/13 00:53:07;;;;;;;52.90;31.15;;;;;;;7.56;79.29;99764.28;1860736;77;21990;-63
2021/04/13 00:55:56;;;;;;;56.58;31.45;;;;;;;7.56;79.32;99760.19;1827971;77;20943;-63
2021/04/13 00:58:46;;;;;;;49.53;27.25;;;;;;;7.55;79.46;99755.83;1860825;77;21113;-64
2021/04/13 01:01:24;;;;;;;57.93;31.42;;;;;;;7.53;79.54;99750.66;1861011;77;21058;-65
2021/04/13 01:04:01;;;;;;;53.70;31.37;;;;;;;7.53;79.45;99741.64;1829460;77;21479;-64
2021/04/13 01:06:27;;;;;;;59.40;31.85;;;;;;;7.54;79.44;99744.08;1851931;77;21382;-65
2021/04/13 01:09:10;;;;;;;49.67;29.75;;;;;;;7.54;79.43;99743.27;1829325;78;21490;-65
2021/04/13 01:11:50;;;;;;;54.42;31.82;;;;;;;7.53;79.45;99741.09;1826961;78;25162;-64
2021/04/13 01:14:19;;;;;;;54.70;31.40;;;;;;;7.53;79.39;99743.82;1830321;78;21053;-64
2021/04/13 01:16:51;;;;;;;55.55;30.43;;;;;;;7.51;79.48;99741.93;1830464;78;21068;-64
2021/04/13 01:19:43;;;;;;;65.22;32.95;;;;;;;7.52;79.61;99739.46;1830169;78;20943;-65
2021/04/13 01:22:36;;;;;;;62.58;32.40;;;;;;;7.52;79.55;99735.36;1825870;78;20994;-66
2021/04/13 01:25:09;;;;;;;60.58;32.58;;;;;;;7.48;79.58;99728.89;1802134;78;20955;-63
2021/04/13 01:27:37;;;;;;;61.45;33.80;;;;;;;7.46;79.66;99724.81;1829816;78;20943;-63
2021/04/13 01:30:10;;;;;;;60.35;32.63;;;;;;;7.45;79.73;99734.11;1829871;78;21470;-64
2021/04/13 01:32:37;;;;;;;68.40;33.78;;;;;;;7.46;79.91;99745.30;1829916;78;21375;-63
2021/04/13 01:35:11;;;;;;;60.10;32.03;;;;;;;7.45;80.17;99740.94;1829719;78;20978;-63
2021/04/13 01:37:53;;;;;;;63.02;31.82;;;;;;;7.43;80.16;99733.59;1829972;78;21153;-64
2021/04/13 01:40:40;;;;;;;61.13;31.85;;;;;;;7.42;80.26;99733.33;1828962;78;21084;-65
2021/04/13 01:43:00;;;;;;;54.75;30.35;;;;;;;7.41;80.21;99731.70;1827755;78;21533;-64
2021/04/13 01:45:31;;;;;;;48.95;29.80;;;;;;;7.39;80.22;99729.27;1829775;78;21524;-64
2021/04/13 01:47:58;;;;;;;54.67;30.00;;;;;;;7.38;80.35;99729.55;1829721;78;21034;-64
2021/04/13 01:50:30;;;;;;;63.83;32.58;;;;;;;7.37;80.45;99731.47;1829773;78;20990;-65
2021/04/13 01:53:10;;;;;;;54.58;31.93;;;;;;;7.36;80.60;99731.20;1829896;78;21111;-65
2021/04/13 01:55:39;;;;;;;60.28;32.80;;;;;;;7.36;80.60;99722.20;1821069;78;20883;-64
2021/04/13 01:58:19;;;;;;;49.75;29.45;;;;;;;7.37;80.61;99719.73;1829699;78;22275;-64
2021/04/13 02:00:54;;;;;;;54.98;30.97;;;;;;;7.38;80.56;99725.45;1829829;78;21074;-65
2021/04/13 02:03:45;;;;;;;58.87;31.37;;;;;;;7.38;80.53;99727.63;1828808;78;20963;-64
2021/04/13 02:06:20;;;;;;;58.55;30.60;;;;;;;7.37;80.54;99726.55;1829674;77;21062;-64
2021/04/13 02:08:53;;;;;;;60.65;33.50;;;;;;;7.36;80.58;99727.66;1829388;78;21019;-63
2021/04/13 02:11:24;;;;;;;59.58;32.15;;;;;;;7.35;80.58;99725.48;1829925;78;21087;-63
2021/04/13 02:14:03;;;;;;;61.55;33.10;;;;;;;7.37;80.59;99726.55;1829762;78;20907;-63
2021/04/13 02:16:48;;;;;;;56.58;32.90;;;;;;;7.34;80.55;99721.67;1800230;78;21081;-64
2021/04/13 02:19:17;;;;;;;56.85;31.23;;;;;;;7.34;80.70;99726.58;1829876;78;20927;-63
2021/04/13 02:21:49;;;;;;;63.28;31.82;;;;;;;7.33;80.67;99729.05;1829877;78;20927;-65
2021/04/13 02:24:21;;;;;;;61.33;31.75;;;;;;;7.34;80.69;99731.23;1829855;78;21042;-65
2021/04/13 02:26:54;;;;;;;60.10;31.73;;;;;;;7.35;80.79;99732.86;1829786;78;21593;-65
2021/04/13 02:29:29;;;;;;;59.53;31.52;;;;;;;7.34;80.84;99725.77;1829703;78;20998;-64
2021/04/13 02:32:00;;;;;;;59.53;30.92;;;;;;;7.34;80.92;99731.23;1829196;78;21501;-65
2021/04/13 02:34:32;;;;;;;56.68;31.57;;;;;;;7.34;81.04;99725.77;1829912;78;21474;-64
2021/04/13 02:37:10;;;;;;;58.90;31.65;;;;;;;7.34;81.04;99725.77;1827956;78;21639;-64
2021/04/13 02:39:40;;;;;;;52.30;31.85;;;;;;;7.35;81.08;99730.12;1822455;78;21522;-64
2021/04/13 02:42:22;;;;;;;58.23;33.70;;;;;;;7.34;81.14;99723.04;1829709;78;21684;-65
2021/04/13 02:44:56;;;;;;;59.70;31.23;;;;;;;7.33;81.17;99721.41;1829976;78;21109;-65
2021/04/13 02:47:24;;;;;;;57.17;33.53;;;;;;;7.29;81.25;99715.16;1829811;78;20920;-64
2021/04/13 02:49:52;;;;;;;51.18;32.38;;;;;;;7.29;81.48;99717.89;1829843;78;22240;-64
2021/04/13 02:52:25;;;;;;;56.53;30.92;;;;;;;7.29;81.59;99713.80;1828792;77;21608;-65
2021/04/13 02:54:55;;;;;;;;;;;;;;;7.28;81.74;99708.62;1832573;78;20922;-65
2021/04/13 02:57:41;;;;;;;54.03;28.92;;;;;;;7.28;81.98;99709.99;1829705;78;20569;-65
2021/04/13 03:00:26;;;;;;;69.95;33.38;;;;;;;7.29;81.98;99715.16;1829637;78;20978;-65
2021/04/13 03:02:57;;;;;;;61.53;33.85;;;;;;;7.30;82.11;99714.61;1829134;78;22272;-64
2021/04/13 03:05:27;;;;;;;60.92;32.98;;;;;;;7.29;82.20;99710.25;1827742;78;20943;-65
2021/04/13 03:08:01;;;;;;;56.10;32.33;;;;;;;7.27;82.17;99711.09;1829728;78;21490;-65
2021/04/13 03:10:34;;;;;;;60.58;32.25;;;;;;;7.25;82.30;99707.84;1793193;80;20978;-65
2021/04/13 03:13:05;;;;;;;;;;;;;;;7.26;82.42;99708.10;1762517;81;20929;-64
2021/04/13 03:15:34;;;;;;;54.40;32.30;;;;;;;7.25;82.53;99701.83;1760571;81;21371;-65
2021/04/13 03:18:06;;;;;;;58.17;33.38;;;;;;;7.21;82.72;99698.05;1760250;81;21649;-65
2021/04/13 03:20:38;;;;;;;55.92;32.85;;;;;;;7.22;82.83;99699.67;1759922;81;20972;-65
2021/04/13 03:23:06;;;;;;;;;;;;;;;7.22;82.89;99692.84;1795821;80;20941;-64
2021/04/13 03:25:35;;;;;;;62.55;32.50;;;;;;;7.21;82.92;99699.96;1793243;80;20226;-64
2021/04/13 03:28:06;;;;;;;52.70;31.68;;;;;;;7.20;83.02;99698.34;1793195;80;23388;-66
2021/04/13 03:30:37;;;;;;;62.10;32.88;;;;;;;7.20;83.08;99704.61;1793136;80;21456;-67
2021/04/13 03:33:12;;;;;;;62.65;33.58;;;;;;;7.20;83.28;99699.16;1762764;80;20899;-67
2021/04/13 03:35:40;;;;;;;59.98;32.45;;;;;;;7.21;83.33;99701.33;1780520;79;21021;-64
2021/04/13 03:38:10;;;;;;;67.70;35.13;;;;;;;7.21;83.42;99700.78;1771285;81;21588;-64
2021/04/13 03:40:44;;;;;;;63.63;33.25;;;;;;;7.21;83.55;99699.41;1782852;80;22121;-64
2021/04/13 03:43:14;;;;;;;61.40;35.20;;;;;;;7.22;83.54;99706.50;1735540;81;21020;-63
2021/04/13 03:45:43;;;;;;;53.65;32.25;;;;;;;7.21;83.63;99706.23;1734209;81;20989;-63
2021/04/13 03:48:19;;;;;;;54.20;31.45;;;;;;;7.20;83.78;99705.16;1761817;81;21579;-63
2021/04/13 03:50:46;;;;;;;54.95;33.02;;;;;;;7.19;83.98;99711.73;1734526;81;21464;-64
2021/04/13 03:53:16;;;;;;;61.53;34.08;;;;;;;7.19;84.10;99708.45;1763700;80;22319;-65
2021/04/13 03:56:07;;;;;;;59.80;34.65;;;;;;;7.20;84.26;99710.07;1772749;80;21025;-67
2021/04/13 03:58:39;;;;;;;62.80;35.38;;;;;;;7.22;84.19;99715.24;1781174;80;21006;-66
2021/04/13 04:01:07;;;;;;;70.97;35.95;;;;;;;7.21;84.22;99714.43;1792892;79;21194;-67
2021/04/13 04:03:38;;;;;;;59.08;34.18;;;;;;;7.21;84.21;99711.70;1792784;80;21065;-65
2021/04/13 04:06:05;;;;;;;69.27;36.73;;;;;;;7.22;84.30;99711.15;1792794;80;21472;-67
2021/04/13 04:11:15;;;;;;;66.33;34.33;;;;;;;7.29;84.31;99719.81;1889753;76;22755;-65
2021/04/13 04:13:51;;;;;;;59.95;32.48;;;;;;;7.25;84.21;99723.67;1860783;77;20919;-68
2021/04/13 04:16:29;;;;;;;59.85;34.45;;;;;;;7.25;84.28;99722.30;1833012;77;21460;-66
2021/04/13 04:19:11;;;;;;;75.05;37.58;;;;;;;7.26;84.15;99717.11;1860625;77;21046;-66
2021/04/13 04:21:50;;;;;;;72.30;38.50;;;;;;;7.32;84.22;99723.88;1871978;76;22661;-66
2021/04/13 04:24:22;;;;;;;74.10;36.68;;;;;;;7.27;84.37;99728.84;1828935;78;21166;-66
2021/04/13 04:26:56;;;;;;;59.93;35.23;;;;;;;7.27;84.44;99726.92;1840463;78;21353;-66
2021/04/13 04:29:37;;;;;;;70.15;35.75;;;;;;;7.32;84.38;99724.69;1840486;77;21027;-67
2021/04/13 04:32:21;;;;;;;78.45;38.33;;;;;;;7.34;84.28;99718.94;1840533;78;21043;-66
2021/04/13 04:34:51;;;;;;;66.75;35.92;;;;;;;7.35;84.35;99725.48;1840736;77;21007;-65
2021/04/13 04:37:36;;;;;;;69.22;37.17;;;;;;;7.36;84.39;99718.91;1833324;78;20974;-65
2021/04/13 04:40:21;;;;;;;69.27;36.88;;;;;;;7.38;84.31;99722.72;1824975;78;21366;-68
2021/04/13 04:43:13;;;;;;;73.05;36.42;;;;;;;7.38;84.31;99722.17;1810774;78;21023;-67
2021/04/13 04:45:47;;;;;;;67.37;35.98;;;;;;;7.39;84.21;99718.89;1808197;78;20976;-67
2021/04/13 04:48:24;;;;;;;61.25;33.85;;;;;;;7.40;84.31;99732.25;1808333;78;21463;-65
2021/04/13 04:51:02;;;;;;;69.22;35.83;;;;;;;7.44;84.30;99733.85;1779831;79;21595;-64
2021/04/13 04:53:31;;;;;;;56.40;34.27;;;;;;;7.46;84.29;99733.01;1779313;79;21387;-66
2021/04/13 04:56:01;;;;;;;61.33;33.98;;;;;;;7.47;84.23;99727.26;1808206;79;21038;-65
2021/04/13 04:58:28;;;;;;;67.32;36.50;;;;;;;7.48;84.18;99728.07;1832745;78;21012;-65
2021/04/13 05:00:56;;;;;;;81.82;35.70;;;;;;;7.49;84.14;99725.05;1841192;78;20944;-66
2021/04/13 05:03:25;;;;;;;54.30;33.45;;;;;;;7.50;84.23;99724.50;1841344;77;21044;-65
2021/04/13 05:05:54;;;;;;;65.87;34.90;;;;;;;7.52;84.27;99728.53;1840983;78;21436;-65
2021/04/13 05:08:22;;;;;;;68.47;34.65;;;;;;;7.54;84.12;99726.33;1808177;79;21039;-66
2021/04/13 05:10:50;;;;;;;66.65;33.53;;;;;;;7.54;84.01;99730.42;1808371;78;21546;-66
2021/04/13 05:13:20;;;;;;;61.73;34.13;;;;;;;7.53;84.08;99728.80;1808092;79;21145;-67
2021/04/13 05:15:50;;;;;;;69.07;34.53;;;;;;;7.52;84.21;99724.44;1808353;79;21210;-68
2021/04/13 05:18:18;;;;;;;68.67;36.33;;;;;;;7.52;84.34;99718.97;1808323;79;22190;-66
2021/04/13 05:20:46;;;;;;;65.17;34.67;;;;;;;7.54;84.41;99726.87;1810572;78;20948;-66
2021/04/13 05:23:15;;;;;;;65.20;36.83;;;;;;;7.55;84.44;99728.51;1814002;79;20944;-66
2021/04/13 05:25:43;;;;;;;58.33;33.15;;;;;;;7.57;84.47;99731.76;1813117;79;21047;-68
2021/04/13 05:28:11;;;;;;;62.58;33.15;;;;;;;7.58;84.46;99723.27;1813356;78;21165;-73
2021/04/13 05:30:39;;;;;;;66.72;35.52;;;;;;;7.60;84.51;99723.80;1813935;79;21368;-72
2021/04/13 05:33:07;;;;;;;67.32;33.85;;;;;;;7.62;84.33;99719.41;1813237;78;21550;-76
2021/04/13 05:35:34;;;;;;;74.20;36.42;;;;;;;7.62;84.32;99722.14;1813227;78;20908;-68
2021/04/13 05:38:06;;;;;;;78.78;37.75;;;;;;;7.64;84.32;99721.30;1813470;79;21545;-71
2021/04/13 05:40:35;;;;;;;;;;;;;;;7.65;84.41;99724.29;1815671;79;20940;-67
2021/04/13 05:43:03;;;;;;;69.25;34.95;;;;;;;7.65;84.38;99720.74;1813399;79;21803;-64
2021/04/13 05:45:34;;;;;;;67.32;35.58;;;;;;;7.66;84.39;99719.64;1813377;78;21007;-65
2021/04/13 05:48:03;;;;;;;61.88;34.50;;;;;;;7.67;84.43;99718.53;1812970;79;21014;-66
2021/04/13 05:50:34;;;;;;;65.37;34.50;;;;;;;7.68;84.47;99716.06;1763946;81;21582;-68
2021/04/13 05:53:01;;;;;;;70.20;34.95;;;;;;;7.70;84.58;99716.03;1756200;80;21157;-74
2021/04/13 05:55:30;;;;;;;79.87;37.45;;;;;;;7.75;84.44;99719.25;1756330;81;22322;-69
2021/04/13 05:58:02;;;;;;;66.55;36.03;;;;;;;7.78;84.45;99720.84;1772747;80;21107;-68
2021/04/13 06:00:30;;;;;;;68.67;34.95;;;;;;;7.81;84.22;99723.00;1764425;81;21084;-69
2021/04/13 06:02:59;;;;;;;65.85;35.28;;;;;;;7.84;83.74;99721.04;1758860;80;20887;-69
2021/04/13 06:05:28;;;;;;;70.47;34.85;;;;;;;7.85;83.58;99715.02;1787331;80;20887;-71
2021/04/13 06:07:56;;;;;;;76.22;36.08;;;;;;;7.85;83.65;99720.48;1758906;80;21391;-68
2021/04/13 06:10:25;;;;;;;65.35;35.63;;;;;;;7.88;83.81;99716.62;1764487;80;21619;-68
2021/04/13 06:12:56;;;;;;;70.78;36.63;;;;;;;7.91;83.70;99721.50;1774254;80;21064;-68
2021/04/13 06:15:28;;;;;;;63.38;34.43;;;;;;;7.94;83.62;99712.70;1769144;81;20942;-68
2021/04/13 06:17:56;;;;;;;74.07;36.20;;;;;;;8.00;83.32;99712.64;1767978;81;21191;-69
2021/04/13 06:20:25;;;;;;;63.52;35.73;;;;;;;8.01;83.01;99719.18;1767309;80;21811;-69
2021/04/13 06:22:53;;;;;;;68.83;35.73;;;;;;;8.02;83.17;99718.63;1765514;81;21631;-68
2021/04/13 06:25:23;;;;;;;65.25;35.23;;;;;;;8.06;83.26;99715.56;1765585;81;21159;-68
2021/04/13 06:27:51;;;;;;;70.20;38.33;;;;;;;8.08;83.22;99710.06;1765542;81;21152;-69
2021/04/13 06:30:20;;;;;;;71.82;38.40;;;;;;;8.10;82.74;99707.81;1765611;81;21674;-68
2021/04/13 06:32:48;;;;;;;789.80;368.67;;;;;;;8.11;82.69;99711.36;1765773;81;21200;-68
2021/04/13 06:35:16;;;;;;;186.80;83.03;;;;;;;8.13;82.41;99711.87;1766267;81;21512;-68
2021/04/13 06:37:44;;;;;;;78.67;40.80;;;;;;;8.13;82.58;99713.25;1766221;81;21350;-68
2021/04/13 06:40:52;;;;;;;67.37;37.83;;;;;;;8.15;82.62;99708.30;1766104;81;21536;-68
2021/04/13 06:43:47;;;;;;;77.05;38.10;;;;;;;8.17;82.65;99706.89;1766246;81;21500;-69
2021/04/13 06:46:35;;;;;;;409.30;200.40;;;;;;;8.22;82.48;99711.47;1766203;81;21371;-69
2021/04/13 06:49:43;;;;;;;109.63;57.65;;;;;;;8.26;81.83;99708.41;1766176;81;20982;-68
2021/04/13 06:52:34;;;;;;;74.35;40.48;;;;;;;8.29;81.84;99712.73;1766137;81;20986;-68
2021/04/13 06:55:30;;;;;;;73.92;36.83;;;;;;;8.36;81.92;99718.41;1757478;81;20930;-69
2021/04/13 06:58:16;;;;;;;197.60;122.92;;;;;;;8.41;81.61;99715.60;1769365;80;20986;-72
2021/04/13 07:00:52;;;;;;;85.77;48.15;;;;;;;8.47;81.36;99713.86;1750586;80;21805;-75
2021/04/13 07:03:33;;;;;;;68.22;38.40;;;;;;;8.52;81.13;99715.15;1742226;81;21020;-69
2021/04/13 07:06:24;;;;;;;71.35;38.83;;;;;;;8.60;81.22;99718.58;1741226;80;21075;-73
2021/04/13 07:09:08;;;;;;;65.95;36.95;;;;;;;8.69;81.03;99719.23;1750683;81;21561;-69
2021/04/13 07:11:58;;;;;;;70.92;38.50;;;;;;;8.74;80.14;99714.48;1750650;81;20918;-64
2021/04/13 07:14:58;;;;;;;69.47;39.08;;;;;;;8.75;79.95;99720.22;1750507;80;22008;-66
2021/04/13 07:17:40;;;;;;;72.25;37.45;;;;;;;8.77;79.72;99719.92;1750502;81;20949;-63
2021/04/13 07:20:16;;;;;;;63.75;35.03;;;;;;;8.76;79.70;99718.30;1750444;82;21017;-67
2021/04/13 07:22:59;;;;;;;72.50;38.17;;;;;;;8.77;79.65;99719.92;1750465;80;20981;-66
2021/04/13 07:25:36;;;;;;;68.03;36.13;;;;;;;8.76;79.67;99723.22;1743386;82;21091;-65
2021/04/13 07:28:07;;;;;;;294.52;131.15;;;;;;;8.79;79.65;99723.17;1750499;82;22082;-65
2021/04/13 07:30:43;;;;;;;165.47;73.55;;;;;;;8.79;79.24;99723.98;1750551;82;20941;-66
2021/04/13 07:33:14;;;;;;;132.63;76.50;;;;;;;8.74;79.24;99723.26;1750176;82;21072;-65
2021/04/13 07:35:42;;;;;;;94.25;57.90;;;;;;;8.70;79.45;99724.41;1750580;82;21013;-65
2021/04/13 07:38:16;;;;;;;358.85;64.00;;;;;;;8.69;79.66;99724.16;1749877;82;21162;-69
2021/04/13 07:40:47;;;;;;;74.12;37.65;;;;;;;8.71;80.06;99725.22;1716184;82;21337;-66
2021/04/13 07:43:35;;;;;;;127.80;68.07;;;;;;;8.79;80.22;99725.91;1737881;82;20982;-66
2021/04/13 07:46:53;;;;;;;65.50;38.28;;;;;;;8.87;80.38;99726.59;1724778;83;20998;-69
2021/04/13 07:49:39;;;;;;;72.67;36.73;;;;;;;8.94;79.87;99721.55;1737785;82;21143;-67
2021/04/13 07:52:50;;;;;;;137.15;77.70;;;;;;;9.00;79.44;99723.08;1743148;82;21136;-64
2021/04/13 07:55:49;;;;;;;69.70;37.05;;;;;;;8.98;79.23;99719.83;1749058;81;22097;-63
2021/04/13 07:58:30;;;;;;;70.83;36.95;;;;;;;8.98;79.38;99711.62;1743438;81;21579;-61
2021/04/13 08:00:58;;;;;;;74.15;39.20;;;;;;;9.00;79.45;99713.50;1772870;80;21059;-64
2021/04/13 08:03:31;;;;;;;74.05;38.67;;;;;;;9.05;79.71;99716.70;1740682;80;21123;-63
2021/04/13 08:06:29;;;;;;;84.37;36.77;;;;;;;9.12;79.80;99720.67;1720424;82;21061;-65
2021/04/13 08:09:31;;;;;;;140.57;63.90;;;;;;;9.18;79.83;99722.77;1751524;81;21674;-67
2021/04/13 08:12:24;;;;;;;147.95;68.52;;;;;;;9.24;79.61;99722.34;1751722;82;21620;-65
2021/04/13 08:15:12;;;;;;;260.52;111.97;;;;;;;9.28;79.24;99716.52;1730673;81;21181;-65
2021/04/13 08:18:10;;;;;;;145.10;65.90;;;;;;;9.30;78.75;99715.39;1737675;80;21130;-64
2021/04/13 08:20:43;;;;;;;273.65;129.82;;;;;;;9.30;78.74;99715.39;1734712;80;21056;-63
2021/04/13 08:23:28;;;;;;;97.15;53.50;;;;;;;9.30;78.37;99716.21;1720351;82;21201;-65
2021/04/13 08:25:58;;;;;;;79.70;44.00;;;;;;;9.28;78.56;99711.03;1725582;80;21008;-65
2021/04/13 08:28:38;;;;;;;84.00;44.30;;;;;;;9.30;78.88;99709.92;1705878;82;21163;-65
2021/04/13 08:34:54;;;;;;;118.57;61.48;;;;;;;9.39;79.02;99710.84;1697925;82;20942;-66
2021/04/13 08:37:53;;;;;;;94.58;46.58;;;;;;;9.35;78.68;99707.89;1733795;82;21192;-63
2021/04/13 08:40:26;;;;;;;90.47;46.13;;;;;;;9.31;78.95;99704.14;1731638;82;21198;-64
2021/04/13 08:43:18;;;;;;;86.42;40.75;;;;;;;9.30;79.42;99698.41;1746748;82;21060;-70
2021/04/13 08:45:57;;;;;;;82.92;40.75;;;;;;;9.36;80.12;99697.19;1720485;82;21071;-71
2021/04/13 08:48:33;;;;;;;84.28;39.70;;;;;;;9.44;80.33;99702.52;1733218;82;21145;-77
2021/04/13 08:51:16;;;;;;;86.12;44.25;;;;;;;9.47;80.22;99693.69;1724824;82;21195;-68
2021/04/13 08:53:48;;;;;;;86.65;41.63;;;;;;;9.51;80.43;99692.78;1734176;82;21745;-69
2021/04/13 08:56:26;;;;;;;74.42;39.98;;;;;;;9.60;80.55;99690.14;1747622;82;21064;-70
2021/04/13 08:59:02;;;;;;;79.65;40.50;;;;;;;9.65;80.48;99691.41;1747776;81;21071;-70
2021/04/13 09:01:44;;;;;;;88.37;41.25;;;;;;;9.66;80.33;99685.36;1728964;80;21600;-69
2021/04/13 09:04:31;;;;;;;85.57;41.88;;;;;;;9.62;80.22;99676.94;1727349;82;22690;-69
2021/04/13 09:07:10;;;;;;;75.20;39.27;;;;;;;9.58;80.37;99682.22;1711340;82;21188;-69
2021/04/13 09:09:52;;;;;;;84.03;38.92;;;;;;;9.58;80.92;99678.67;1733494;82;21980;-68
2021/04/13 09:12:33;;;;;;;84.50;41.40;;;;;;;9.60;81.32;99681.91;1718655;82;21607;-69
2021/04/13 09:15:22;;;;;;;81.57;41.25;;;;;;;9.62;80.98;99678.31;1736207;82;21165;-73
2021/04/13 09:18:14;;;;;;;89.03;44.30;;;;;;;9.63;80.50;99687.34;1738146;82;21366;-69
2021/04/13 09:20:48;;;;;;;72.60;37.88;;;;;;;9.58;81.09;99686.89;1737900;82;21650;-68
2021/04/13 09:23:43;;;;;;;114.50;54.13;;;;;;;9.56;80.94;99683.64;1727615;82;21180;-68
2021/04/13 09:26:36;;;;;;;179.70;97.65;;;;;;;9.53;81.09;99679.58;1735139;80;21155;-70
2021/04/13 09:29:04;;;;;;;96.02;48.90;;;;;;;9.57;81.60;99664.71;1753203;81;21056;-65
2021/04/13 09:31:41;;;;;;;93.58;48.68;;;;;;;9.62;81.66;99681.61;1654585;83;22166;-69
2021/04/13 09:34:15;;;;;;;107.83;67.10;;;;;;;9.63;81.42;99674.45;1752430;81;21013;-71
2021/04/13 09:37:12;;;;;;;77.80;40.70;;;;;;;9.68;81.58;99674.34;1747311;81;21104;-67
2021/04/13 09:40:13;;;;;;;90.17;39.10;;;;;;;9.73;81.30;99672.87;1752293;80;21151;-70
2021/04/13 09:43:05;;;;;;;71.10;36.85;;;;;;;9.82;81.31;99671.59;1730422;82;21191;-70
2021/04/13 09:46:08;;;;;;;73.62;37.95;;;;;;;9.89;81.04;99668.64;1753085;81;22366;-69
2021/04/13 09:49:10;;;;;;;71.50;39.30;;;;;;;9.93;80.73;99670.22;1751284;81;21187;-68
2021/04/13 09:51:53;;;;;;;66.55;36.85;;;;;;;9.90;80.65;99668.09;1750655;81;21196;-70
2021/04/13 09:54:38;;;;;;;70.17;36.85;;;;;;;9.86;80.60;99669.82;1728491;81;21615;-67
2021/04/13 09:57:23;;;;;;;76.53;40.00;;;;;;;9.82;80.73;99668.84;1763918;80;21624;-67
2021/04/13 10:00:15;;;;;;;82.40;41.48;;;;;;;9.78;80.94;99667.84;1720660;82;21353;-71
2021/04/13 10:03:32;;;;;;;79.90;40.25;;;;;;;9.77;80.87;99662.91;1751240;81;21686;-70
2021/04/13 10:06:00;;;;;;;75.05;39.55;;;;;;;9.76;81.01;99666.77;1730012;82;21179;-71
2021/04/13 10:08:34;;;;;;;79.92;38.08;;;;;;;9.80;80.78;99662.86;1753814;81;21168;-72
2021/04/13 10:11:32;;;;;;;69.35;36.98;;;;;;;9.80;80.73;99658.74;1744866;81;21132;-69
2021/04/13 10:14:18;;;;;;;63.65;33.10;;;;;;;9.80;80.79;99662.86;1684180;83;21168;-68
2021/04/13 10:17:27;;;;;;;63.98;31.52;;;;;;;9.80;80.32;99657.37;1709167;83;21025;-69
2021/04/13 10:20:00;;;;;;;60.83;31.85;;;;;;;9.78;80.15;99664.53;1732445;82;21139;-68
2021/04/13 10:22:52;;;;;;;61.23;31.90;;;;;;;9.76;80.08;99664.59;1728539;82;21043;-69
2021/04/13 10:26:08;;;;;;;58.00;30.33;;;;;;;9.74;80.14;99659.97;1733187;82;21125;-69
2021/04/13 10:29:30;;;;;;;58.52;31.10;;;;;;;9.74;80.11;99659.41;1731665;82;21167;-68
2021/04/13 10:32:34;;;;;;;68.55;33.70;;;;;;;9.74;80.00;99664.08;1689902;83;21212;-68
2021/04/13 10:35:34;;;;;;;71.87;32.75;;;;;;;9.71;80.30;99659.22;1715881;82;21216;-69
2021/04/13 10:38:42;;;;;;;59.67;31.62;;;;;;;9.74;80.42;99660.78;1719797;82;21193;-66
2021/04/13 10:41:49;;;;;;;699.02;320.85;;;;;;;9.78;80.26;99656.31;1717989;82;21082;-67
2021/04/13 10:45:06;;;;;;;260.10;130.85;;;;;;;9.87;80.15;99653.62;1709210;82;21529;-66
2021/04/13 10:48:17;;;;;;;160.52;89.60;;;;;;;9.94;79.40;99657.56;1709018;82;21180;-64
2021/04/13 10:51:16;;;;;;;103.42;49.95;;;;;;;9.99;78.42;99651.71;1730900;82;21135;-65
2021/04/13 10:54:11;;;;;;;120.47;66.02;;;;;;;9.96;78.40;99659.19;1691224;83;21017;-65
2021/04/13 10:57:28;;;;;;;108.87;56.35;;;;;;;9.90;78.60;99655.75;1715705;82;21212;-66
2021/04/13 11:00:36;;;;;;;74.22;38.83;;;;;;;9.81;78.83;99651.58;1720248;82;21525;-65
2021/04/13 11:04:01;;;;;;;100.10;56.25;;;;;;;9.74;78.83;99647.08;1707597;83;21135;-72
2021/04/13 11:07:12;;;;;;;98.70;58.00;;;;;;;9.70;79.01;99655.66;1725770;82;21110;-68
2021/04/13 11:09:49;;;;;;;75.43;38.53;;;;;;;9.65;79.15;99650.28;1716195;81;21234;-73
2021/04/13 11:13:16;;;;;;;66.35;34.38;;;;;;;9.65;79.49;99655.77;1696027;82;21079;-74
2021/04/13 11:15:57;;;;;;;61.02;32.60;;;;;;;9.69;79.69;99651.86;1662376;85;21608;-68
2021/04/13 11:18:43;;;;;;;59.75;30.90;;;;;;;9.73;79.41;99652.87;1673930;85;21169;-67
2021/04/13 11:21:48;;;;;;;66.22;32.53;;;;;;;9.73;79.35;99648.75;1652179;85;21636;-68
2021/04/13 11:24:38;;;;;;;63.02;33.35;;;;;;;9.72;79.41;99649.31;1682577;84;21171;-66
2021/04/13 11:27:35;;;;;;;58.40;31.07;;;;;;;9.71;79.37;99649.63;1669371;84;21219;-73
2021/04/13 11:30:37;;;;;;;64.82;33.48;;;;;;;9.68;79.43;99646.93;1671329;84;21375;-68
2021/04/13 11:33:17;;;;;;;60.25;33.63;;;;;;;9.65;79.75;99646.17;1681491;84;21223;-68
2021/04/13 11:35:53;;;;;;;57.25;30.05;;;;;;;9.67;79.97;99651.35;1681699;84;21512;-66
2021/04/13 11:38:46;;;;;;;71.30;32.53;;;;;;;9.71;80.55;99644.95;1698749;84;21168;-66
2021/04/13 11:41:49;;;;;;;76.80;42.67;;;;;;;9.82;80.30;99649.06;1679439;85;21184;-68
2021/04/13 11:44:48;;;;;;;53.83;28.23;;;;;;;9.88;79.88;99642.34;1692949;84;21544;-67
2021/04/13 11:47:47;;;;;;;53.60;27.02;;;;;;;9.91;79.30;99645.84;1676045;85;21607;-67
2021/04/13 11:50:41;;;;;;;61.73;31.87;;;;;;;9.88;79.28;99639.60;1657608;85;21204;-67
2021/04/13 11:53:15;;;;;;;57.33;27.35;;;;;;;9.84;79.37;99646.02;1685386;84;21206;-69
2021/04/13 11:55:48;;;;;;;49.10;25.82;;;;;;;9.77;79.90;99649.20;1624407;86;21207;-68
2021/04/13 11:58:26;;;;;;;56.75;27.82;;;;;;;9.69;80.26;99643.63;1680794;84;21511;-66
2021/04/13 12:01:17;;;;;;;59.03;29.63;;;;;;;9.59;80.80;99644.10;1700951;84;21144;-67
2021/04/13 12:03:59;;;;;;;54.73;28.07;;;;;;;9.54;81.27;99642.84;1683441;84;21473;-67
2021/04/13 12:06:50;;;;;;;58.55;27.62;;;;;;;9.53;81.66;99645.33;1697914;83;21208;-66
2021/04/13 12:09:42;;;;;;;53.73;27.40;;;;;;;9.51;81.42;99636.59;1887790;75;22714;-66
2021/04/13 12:12:33;;;;;;;55.43;26.48;;;;;;;9.41;81.71;99634.63;1774533;80;21584;-68
2021/04/13 12:15:16;;;;;;;55.50;24.67;;;;;;;9.37;82.02;99630.31;1745773;81;21463;-66
2021/04/13 12:17:50;;;;;;;57.10;25.57;;;;;;;9.39;82.05;99631.38;1775260;80;21422;-66
2021/04/13 12:20:30;;;;;;;51.33;25.12;;;;;;;9.37;82.02;99629.51;1746662;80;21026;-65
2021/04/13 12:23:13;;;;;;;50.40;23.90;;;;;;;9.37;82.28;99628.95;1773768;81;21010;-65
2021/04/13 12:25:55;;;;;;;317.82;132.00;;;;;;;9.38;82.48;99629.76;1776343;80;21041;-68
2021/04/13 12:28:37;;;;;;;99.55;48.95;;;;;;;9.36;82.78;99632.80;1822427;77;23435;-67
2021/04/13 12:31:25;;;;;;;64.62;34.18;;;;;;;9.34;83.08;99621.34;1822817;77;21480;-66
2021/04/13 12:34:01;;;;;;;90.97;41.37;;;;;;;9.34;83.52;99621.34;1827637;77;21529;-65
2021/04/13 12:36:57;;;;;;;57.25;28.35;;;;;;;9.34;83.53;99624.64;1783891;79;21113;-67